Time;durP1;ratioP1;P1;durP2;ratioP2;P2;SDS_P1;SDS_P2;PMS_P1;PMS_P2;Temp;Humidity;BMP_temperature;BMP_pressure;BME280_temperature;BME280_humidity;BME280_pressure;Samples;Min_cycle;Max_cycle;Signal;HPM_P1;HPM_P2
2023/08/11 00:00:09;;;;;;;13.48;11.27;;;16.50;99.90;;;;;;5073764;28;20060;-58
2023/08/11 00:02:38;;;;;;;16.63;11.98;;;16.40;99.90;;;;;;5080498;28;20151;-58
2023/08/11 00:05:04;;;;;;;15.15;11.80;;;16.40;99.90;;;;;;5079285;28;20044;-57
2023/08/11 00:07:30;;;;;;;15.23;11.98;;;16.40;99.90;;;;;;5079913;28;20045;-58
2023/08/11 00:09:56;;;;;;;14.38;11.70;;;16.40;99.90;;;;;;5069711;28;20087;-58
2023/08/11 00:12:21;;;;;;;13.85;11.90;;;16.30;99.90;;;;;;5067231;28;20036;-58
2023/08/11 00:14:47;;;;;;;13.70;11.70;;;16.40;99.90;;;;;;5080879;28;20068;-58
2023/08/11 00:17:13;;;;;;;15.88;11.80;;;16.30;99.90;;;;;;5079469;28;20048;-58
2023/08/11 00:19:39;;;;;;;15.85;11.98;;;16.30;99.90;;;;;;5072775;28;20355;-58
2023/08/11 00:22:07;;;;;;;14.18;12.63;;;16.30;99.90;;;;;;5091199;28;20047;-58
2023/08/11 00:24:34;;;;;;;19.48;12.75;;;16.30;99.90;;;;;;5085455;28;20040;-58
2023/08/11 00:27:02;;;;;;;15.13;13.32;;;16.30;99.90;;;;;;5087222;28;20064;-57
2023/08/11 00:29:31;;;;;;;17.83;14.63;;;16.20;99.90;;;;;;5077315;28;20044;-57
2023/08/11 00:31:56;;;;;;;20.00;14.70;;;16.20;99.90;;;;;;5078939;28;20131;-58
2023/08/11 00:34:22;;;;;;;17.63;14.30;;;16.20;99.90;;;;;;5078807;28;20040;-57
2023/08/11 00:36:48;;;;;;;14.88;13.23;;;16.20;99.90;;;;;;5077909;28;20048;-57
2023/08/11 00:39:15;;;;;;;19.08;14.63;;;16.20;99.90;;;;;;5065359;28;20614;-58
2023/08/11 00:41:41;;;;;;;17.75;15.50;;;16.20;99.90;;;;;;5077253;28;20040;-56
2023/08/11 00:44:07;;;;;;;21.45;15.25;;;16.10;99.90;;;;;;5079749;28;20504;-59
2023/08/11 00:46:33;;;;;;;17.45;14.80;;;16.20;99.90;;;;;;5079011;28;20155;-58
2023/08/11 00:48:59;;;;;;;18.13;15.18;;;16.10;99.90;;;;;;5073825;28;20041;-58
2023/08/11 00:51:25;;;;;;;19.33;14.75;;;16.10;99.90;;;;;;5071940;28;20037;-58
2023/08/11 00:53:51;;;;;;;15.65;13.77;;;16.10;99.90;;;;;;5064645;28;20036;-58
2023/08/11 00:56:22;;;;;;;15.35;13.70;;;16.10;99.90;;;;;;5078538;28;20040;-57
2023/08/11 00:58:49;;;;;;;18.48;13.85;;;16.00;99.90;;;;;;5086180;28;20051;-58
2023/08/11 01:01:15;;;;;;;18.05;14.05;;;16.00;99.90;;;;;;5081569;28;20045;-58
2023/08/11 01:03:43;;;;;;;16.85;14.65;;;16.00;99.90;;;;;;5075659;28;20096;-57
2023/08/11 01:06:25;;;;;;;17.48;14.48;;;16.00;99.90;;;;;;5080353;28;20044;-58
2023/08/11 01:09:01;;;;;;;15.93;14.10;;;16.00;99.90;;;;;;5077873;28;20041;-58
2023/08/11 01:11:29;;;;;;;16.67;13.18;;;16.00;99.90;;;;;;5080008;28;20037;-58
2023/08/11 01:14:06;;;;;;;16.88;15.10;;;16.00;99.90;;;;;;5079296;28;20062;-58
2023/08/11 01:16:34;;;;;;;17.58;14.52;;;15.90;99.90;;;;;;5065219;28;20044;-58
2023/08/11 01:19:01;;;;;;;16.05;14.30;;;15.90;99.90;;;;;;5070911;28;20041;-58
2023/08/11 01:21:28;;;;;;;16.75;13.45;;;15.90;99.90;;;;;;5059045;28;20115;-58
2023/08/11 01:23:54;;;;;;;19.08;14.40;;;15.90;99.90;;;;;;5059275;28;20041;-58
2023/08/11 01:26:20;;;;;;;16.77;14.32;;;15.90;99.90;;;;;;5072295;28;20099;-58
2023/08/11 01:28:47;;;;;;;15.60;13.90;;;15.90;99.90;;;;;;5080564;28;20048;-58
2023/08/11 01:31:12;;;;;;;16.65;13.30;;;15.80;99.90;;;;;;5077907;28;20097;-58
2023/08/11 01:33:38;;;;;;;23.55;14.68;;;15.90;99.90;;;;;;5055089;28;20084;-57
2023/08/11 01:36:04;;;;;;;16.60;14.82;;;15.80;99.90;;;;;;5072621;28;20067;-58
2023/08/11 01:38:30;;;;;;;19.67;15.05;;;15.90;99.90;;;;;;5093842;28;20043;-58
2023/08/11 01:40:57;;;;;;;19.08;14.32;;;15.80;99.90;;;;;;5078077;28;20041;-58
2023/08/11 01:43:25;;;;;;;16.30;14.60;;;15.80;99.90;;;;;;5074366;28;20071;-58
2023/08/11 01:45:51;;;;;;;21.35;14.52;;;15.80;99.90;;;;;;5086146;28;20044;-58
2023/08/11 01:48:19;;;;;;;18.17;14.70;;;15.80;99.90;;;;;;5079447;28;20044;-57
2023/08/11 01:50:45;;;;;;;16.15;13.80;;;15.80;99.90;;;;;;5080178;28;20037;-58
2023/08/11 01:53:12;;;;;;;18.83;14.32;;;15.80;99.90;;;;;;5083677;28;20044;-58
2023/08/11 01:55:38;;;;;;;17.98;14.23;;;15.70;99.90;;;;;;5082200;28;20467;-57
2023/08/11 01:58:05;;;;;;;17.70;14.75;;;15.80;99.90;;;;;;5084777;28;20040;-57
2023/08/11 02:00:31;;;;;;;18.55;14.32;;;15.80;99.90;;;;;;5075698;28;20033;-58
2023/08/11 02:02:57;;;;;;;14.13;12.60;;;15.70;99.90;;;;;;5078654;28;20081;-58
2023/08/11 02:05:24;;;;;;;15.32;13.63;;;15.70;99.90;;;;;;5100151;28;20051;-57
2023/08/11 02:07:51;;;;;;;19.10;12.98;;;15.70;99.90;;;;;;5078543;28;20115;-58
2023/08/11 02:10:17;;;;;;;16.80;13.98;;;15.70;99.90;;;;;;5063643;28;20080;-58
2023/08/11 02:12:43;;;;;;;16.45;12.93;;;15.70;99.90;;;;;;5078449;28;20044;-58
2023/08/11 02:15:10;;;;;;;18.50;13.00;;;15.70;99.90;;;;;;5083695;28;20044;-58
2023/08/11 02:17:37;;;;;;;16.00;12.60;;;15.70;99.90;;;;;;5081051;28;20036;-58
2023/08/11 02:20:18;;;;;;;17.90;12.88;;;15.70;99.90;;;;;;5079741;28;20040;-59
2023/08/11 02:22:44;;;;;;;15.45;12.00;;;15.60;99.90;;;;;;5068851;28;20052;-58
2023/08/11 02:25:09;;;;;;;15.48;12.15;;;15.60;99.90;;;;;;5082028;28;20108;-58
2023/08/11 02:27:35;;;;;;;14.75;12.68;;;15.60;99.90;;;;;;5083243;28;20056;-59
2023/08/11 02:30:04;;;;;;;14.48;12.10;;;15.60;99.90;;;;;;5078531;28;20048;-58
2023/08/11 02:32:30;;;;;;;13.38;11.45;;;15.60;99.90;;;;;;5063496;28;20059;-59
2023/08/11 02:34:56;;;;;;;13.75;11.82;;;15.60;99.90;;;;;;5061172;28;20044;-59
2023/08/11 02:37:21;;;;;;;18.63;11.90;;;15.60;99.90;;;;;;5065342;28;20540;-58
2023/08/11 02:39:47;;;;;;;14.45;11.52;;;15.60;99.90;;;;;;5081260;28;20051;-60
2023/08/11 02:42:13;;;;;;;14.65;11.40;;;15.60;99.90;;;;;;5062850;28;20127;-58
2023/08/11 02:44:39;;;;;;;16.52;11.07;;;15.60;99.90;;;;;;5076119;28;20059;-58
2023/08/11 02:47:05;;;;;;;12.98;10.80;;;15.60;99.90;;;;;;5079964;28;20044;-58
2023/08/11 02:49:30;;;;;;;11.80;10.60;;;15.50;99.90;;;;;;5082509;28;20063;-58
2023/08/11 02:51:56;;;;;;;15.02;11.10;;;15.50;99.90;;;;;;5086228;28;20051;-58
2023/08/11 02:54:22;;;;;;;13.32;11.05;;;15.50;99.90;;;;;;5081073;28;20053;-58
2023/08/11 02:56:48;;;;;;;11.93;10.70;;;15.50;99.90;;;;;;5099449;28;20806;-58
2023/08/11 02:59:14;;;;;;;13.32;10.98;;;15.50;99.90;;;;;;5089197;28;20063;-59
2023/08/11 03:01:40;;;;;;;14.65;11.23;;;15.50;99.90;;;;;;5076128;28;20048;-58
2023/08/11 03:04:06;;;;;;;13.32;11.32;;;15.50;99.90;;;;;;5080629;28;20075;-58
2023/08/11 03:06:31;;;;;;;16.35;11.32;;;15.50;99.90;;;;;;5083031;28;20044;-58
2023/08/11 03:08:57;;;;;;;12.32;10.55;;;15.50;99.90;;;;;;5081480;28;20109;-58
2023/08/11 03:11:23;;;;;;;14.13;10.75;;;15.50;99.90;;;;;;5076603;28;20068;-59
2023/08/11 03:13:48;;;;;;;14.23;10.30;;;15.50;99.90;;;;;;5060960;28;20052;-58
2023/08/11 03:16:15;;;;;;;12.45;10.70;;;15.50;99.90;;;;;;5074833;28;20033;-58
2023/08/11 03:18:41;;;;;;;17.70;10.38;;;15.50;99.90;;;;;;5074772;28;20071;-58
2023/08/11 03:21:07;;;;;;;15.48;10.88;;;15.40;99.90;;;;;;5061304;28;20037;-58
2023/08/11 03:23:34;;;;;;;13.57;10.13;;;15.40;99.90;;;;;;5080231;28;20044;-58
2023/08/11 03:25:59;;;;;;;13.10;10.57;;;15.40;99.90;;;;;;5100510;28;20052;-58
2023/08/11 03:28:25;;;;;;;14.27;10.43;;;15.40;99.90;;;;;;5097168;28;20049;-58
2023/08/11 03:30:51;;;;;;;14.75;10.52;;;15.40;99.90;;;;;;5091732;28;20040;-58
2023/08/11 03:33:17;;;;;;;14.23;10.77;;;15.40;99.90;;;;;;5099261;28;20044;-57
2023/08/11 03:35:43;;;;;;;15.15;10.68;;;15.40;99.90;;;;;;5101358;28;20058;-58
2023/08/11 03:38:08;;;;;;;13.30;10.65;;;15.40;99.90;;;;;;5080989;28;20066;-58
2023/08/11 03:40:34;;;;;;;12.93;10.65;;;15.40;99.90;;;;;;5080108;28;20414;-58
2023/08/11 03:43:00;;;;;;;14.70;11.13;;;15.40;99.90;;;;;;5079132;28;20041;-58
2023/08/11 03:45:25;;;;;;;14.80;11.20;;;15.40;99.90;;;;;;5080512;28;20113;-58
2023/08/11 03:47:51;;;;;;;17.90;10.88;;;15.40;99.90;;;;;;5080464;28;20043;-58
2023/08/11 03:50:17;;;;;;;15.60;11.00;;;15.30;99.90;;;;;;5080517;28;20044;-58
2023/08/11 03:52:42;;;;;;;12.70;10.15;;;15.30;99.90;;;;;;5081356;28;20072;-58
2023/08/11 03:55:09;;;;;;;13.38;10.45;;;15.30;99.90;;;;;;5078401;28;20047;-59
2023/08/11 03:57:38;;;;;;;11.80;10.50;;;15.30;99.90;;;;;;5075629;28;20036;-58
2023/08/11 04:00:15;;;;;;;14.80;10.75;;;15.30;99.90;;;;;;5063287;28;20033;-58
2023/08/11 04:02:44;;;;;;;13.23;10.65;;;15.30;99.90;;;;;;5082904;28;20060;-57
2023/08/11 04:05:10;;;;;;;12.30;10.85;;;15.30;99.90;;;;;;5077799;28;20045;-57
2023/08/11 04:07:37;;;;;;;14.05;10.43;;;15.30;99.90;;;;;;5066972;28;20044;-59
2023/08/11 04:10:04;;;;;;;11.73;10.43;;;15.30;99.90;;;;;;5079121;28;20044;-58
2023/08/11 04:12:31;;;;;;;13.65;10.85;;;15.30;99.90;;;;;;5079073;28;20044;-58
2023/08/11 04:14:56;;;;;;;11.65;10.45;;;15.30;99.90;;;;;;5080971;28;20086;-57
2023/08/11 04:17:22;;;;;;;11.43;9.82;;;15.30;99.90;;;;;;5060189;28;20037;-58
2023/08/11 04:19:48;;;;;;;13.27;10.95;;;15.30;99.90;;;;;;5073525;28;20424;-59
2023/08/11 04:22:14;;;;;;;14.45;11.15;;;15.30;99.90;;;;;;5074253;28;20064;-58
2023/08/11 04:24:41;;;;;;;13.75;10.90;;;15.30;99.90;;;;;;5080873;28;20045;-58
2023/08/11 04:27:06;;;;;;;16.48;11.32;;;15.30;99.90;;;;;;5063090;28;20040;-57
2023/08/11 04:29:32;;;;;;;16.88;11.90;;;15.30;99.90;;;;;;5059565;28;20037;-57
2023/08/11 04:32:04;;;;;;;14.80;11.20;;;15.30;99.90;;;;;;5069964;28;20046;-58
2023/08/11 04:34:31;;;;;;;14.73;11.45;;;15.30;99.90;;;;;;5081868;28;20096;-59
2023/08/11 04:36:57;;;;;;;12.68;11.50;;;15.30;99.90;;;;;;5084480;28;20110;-58
2023/08/11 04:39:23;;;;;;;13.90;11.98;;;15.30;99.90;;;;;;5077165;28;20443;-59
2023/08/11 04:41:48;;;;;;;14.65;11.35;;;15.30;99.90;;;;;;5079142;28;20044;-58
2023/08/11 04:44:14;;;;;;;15.77;11.18;;;15.30;99.90;;;;;;5100370;28;20036;-58
2023/08/11 04:46:40;;;;;;;15.13;11.98;;;15.30;99.90;;;;;;5072664;28;20071;-59
2023/08/11 04:49:06;;;;;;;16.10;11.60;;;15.30;99.90;;;;;;5080904;28;20048;-58
2023/08/11 04:51:32;;;;;;;18.55;12.10;;;15.40;99.90;;;;;;5079280;28;20120;-58
2023/08/11 04:54:01;;;;;;;14.13;11.40;;;15.40;99.90;;;;;;5081216;28;20049;-58
2023/08/11 04:56:30;;;;;;;17.50;11.52;;;15.40;99.90;;;;;;5074617;28;20041;-58
2023/08/11 04:58:55;;;;;;;15.18;11.38;;;15.40;99.90;;;;;;5076073;28;20487;-58
2023/08/11 05:01:22;;;;;;;15.25;11.88;;;15.40;99.90;;;;;;5087435;28;20040;-58
2023/08/11 05:03:49;;;;;;;15.70;11.35;;;15.40;99.90;;;;;;5093409;28;20075;-59
2023/08/11 05:06:16;;;;;;;17.05;11.15;;;15.50;99.90;;;;;;5079409;28;20048;-58
2023/08/11 05:08:43;;;;;;;14.52;11.20;;;15.50;99.90;;;;;;5077415;28;20127;-58
2023/08/11 05:11:09;;;;;;;17.88;11.48;;;15.50;99.90;;;;;;5082170;28;20060;-58
2023/08/11 05:13:35;;;;;;;14.85;11.30;;;15.60;99.90;;;;;;5084465;28;20036;-59
2023/08/11 05:16:01;;;;;;;12.38;10.77;;;15.60;99.90;;;;;;5066583;28;20431;-58
2023/08/11 05:18:27;;;;;;;14.50;10.77;;;15.60;99.90;;;;;;5077520;28;20033;-58
2023/08/11 05:20:53;;;;;;;13.23;11.13;;;15.70;99.90;;;;;;5079173;28;20066;-59
2023/08/11 05:23:18;;;;;;;13.85;10.75;;;15.70;99.90;;;;;;5080467;28;20096;-58
2023/08/11 05:25:44;;;;;;;18.20;10.88;;;15.70;99.90;;;;;;5072695;28;20458;-58
2023/08/11 05:28:10;;;;;;;13.18;10.95;;;15.80;99.90;;;;;;5076828;28;20051;-59
2023/08/11 05:30:37;;;;;;;13.27;11.02;;;15.80;99.90;;;;;;5080854;28;20108;-59
2023/08/11 05:33:03;;;;;;;12.38;10.55;;;15.80;99.90;;;;;;5080772;28;20037;-58
2023/08/11 05:35:29;;;;;;;12.52;10.88;;;15.80;99.90;;;;;;5067218;28;20037;-59
2023/08/11 05:37:55;;;;;;;15.82;10.55;;;15.80;99.90;;;;;;5070155;28;20047;-59
2023/08/11 05:40:21;;;;;;;13.35;10.00;;;15.90;99.90;;;;;;5077994;28;20053;-59
2023/08/11 05:42:46;;;;;;;15.85;10.35;;;15.90;99.90;;;;;;5083385;28;20049;-59
2023/08/11 05:45:12;;;;;;;12.95;9.68;;;16.00;99.90;;;;;;5088068;28;20184;-59
2023/08/11 05:47:38;;;;;;;15.68;9.90;;;16.00;99.90;;;;;;5066418;28;20036;-58
2023/08/11 05:50:04;;;;;;;15.23;10.25;;;16.10;99.90;;;;;;5078113;28;20059;-59
2023/08/11 05:52:30;;;;;;;11.98;9.48;;;16.10;99.90;;;;;;5082994;28;20040;-58
2023/08/11 05:54:56;;;;;;;12.65;9.82;;;16.20;99.90;;;;;;5082097;28;20131;-59
2023/08/11 05:57:21;;;;;;;15.65;10.55;;;16.20;99.90;;;;;;5065366;28;20052;-59
2023/08/11 05:59:47;;;;;;;13.02;9.95;;;16.30;99.90;;;;;;5078180;28;20672;-60
2023/08/11 06:02:13;;;;;;;12.25;9.57;;;16.30;99.90;;;;;;5081053;28;20028;-58
2023/08/11 06:04:40;;;;;;;11.02;9.73;;;16.30;99.90;;;;;;5081322;28;20092;-58
2023/08/11 06:07:06;;;;;;;13.10;10.07;;;16.40;99.90;;;;;;5079773;28;20041;-58
2023/08/11 06:09:32;;;;;;;14.55;10.15;;;16.40;99.90;;;;;;5082667;28;20040;-58
2023/08/11 06:11:58;;;;;;;15.13;10.13;;;16.50;99.90;;;;;;5087639;28;20039;-58
2023/08/11 06:14:24;;;;;;;13.23;10.40;;;16.60;99.90;;;;;;5073013;28;20053;-58
2023/08/11 06:16:49;;;;;;;14.85;9.98;;;16.60;99.90;;;;;;5062502;28;20047;-59
2023/08/11 06:19:16;;;;;;;10.02;8.88;;;16.70;99.90;;;;;;5083270;28;20043;-58
2023/08/11 06:21:42;;;;;;;12.60;9.57;;;16.70;99.90;;;;;;5102058;28;20050;-59
2023/08/11 06:24:08;;;;;;;12.70;9.95;;;16.80;99.90;;;;;;5089867;28;20033;-58
2023/08/11 06:26:34;;;;;;;15.80;9.88;;;16.80;99.90;;;;;;5076147;28;20136;-58
2023/08/11 06:28:59;;;;;;;13.30;9.43;;;16.90;99.90;;;;;;5067428;28;20112;-58
2023/08/11 06:31:25;;;;;;;12.25;9.23;;;17.00;99.90;;;;;;5092629;28;20120;-57
2023/08/11 06:33:51;;;;;;;13.32;9.80;;;17.10;99.90;;;;;;5092167;28;20041;-58
2023/08/11 06:36:17;;;;;;;18.15;9.25;;;17.20;99.90;;;;;;5091972;28;20036;-59
2023/08/11 06:38:43;;;;;;;11.57;9.02;;;17.40;99.90;;;;;;5086779;28;20049;-58
2023/08/11 06:41:09;;;;;;;11.93;8.63;;;17.50;99.90;;;;;;5078399;28;20129;-57
2023/08/11 06:43:35;;;;;;;13.70;8.70;;;17.50;99.90;;;;;;5085949;28;20037;-58
2023/08/11 06:46:01;;;;;;;12.93;8.35;;;17.60;99.90;;;;;;5095720;28;20052;-58
2023/08/11 06:48:27;;;;;;;11.20;8.23;;;17.80;99.90;;;;;;5078500;28;20032;-57
2023/08/11 06:50:53;;;;;;;10.98;7.65;;;18.10;99.90;;;;;;5079113;28;20072;-58
2023/08/11 06:53:19;;;;;;;10.00;6.78;;;18.60;99.90;;;;;;5082348;28;20056;-57
2023/08/11 06:55:44;;;;;;;11.75;7.20;;;19.10;99.90;;;;;;5083194;28;20048;-57
2023/08/11 06:58:10;;;;;;;10.43;7.78;;;19.60;99.90;;;;;;5088707;28;20340;-57
2023/08/11 07:00:36;;;;;;;9.85;6.78;;;20.00;99.90;;;;;;5089415;28;21908;-56
2023/08/11 07:03:03;;;;;;;9.02;6.40;;;20.40;99.90;;;;;;5094610;28;20095;-57
2023/08/11 07:05:28;;;;;;;9.52;6.63;;;20.80;99.90;;;;;;5073694;28;20043;-57
2023/08/11 07:07:54;;;;;;;10.65;6.40;;;21.10;99.90;;;;;;5080142;28;20100;-57
2023/08/11 07:10:20;;;;;;;10.00;6.75;;;21.40;99.90;;;;;;5080510;28;20464;-58
2023/08/11 07:12:45;;;;;;;9.93;6.40;;;21.70;99.90;;;;;;5079960;28;20052;-58
2023/08/11 07:15:11;;;;;;;11.38;6.40;;;21.80;99.90;;;;;;5085184;28;20040;-58
2023/08/11 07:17:37;;;;;;;11.88;7.15;;;22.00;99.90;;;;;;5089659;28;20040;-58
2023/08/11 07:20:03;;;;;;;9.57;6.90;;;22.10;99.90;;;;;;5081179;28;20501;-58
2023/08/11 07:22:28;;;;;;;9.30;6.13;;;22.20;99.90;;;;;;5079730;28;20040;-57
2023/08/11 07:24:54;;;;;;;10.32;6.07;;;22.30;99.90;;;;;;5082292;28;20052;-57
2023/08/11 07:27:20;;;;;;;8.40;6.40;;;22.50;99.90;;;;;;5080094;28;20037;-58
2023/08/11 07:29:45;;;;;;;9.73;5.78;;;22.60;99.90;;;;;;5073318;28;20049;-57
2023/08/11 07:32:11;;;;;;;10.05;6.10;;;22.80;99.90;;;;;;5072025;28;20090;-58
2023/08/11 07:34:38;;;;;;;11.27;6.43;;;22.90;99.90;;;;;;5071916;28;20049;-58
2023/08/11 07:37:05;;;;;;;9.50;6.20;;;23.00;99.90;;;;;;5086005;28;20103;-58
2023/08/11 07:39:30;;;;;;;12.55;7.25;;;23.00;99.90;;;;;;5080593;28;20044;-58
2023/08/11 07:42:02;;;;;;;10.98;6.43;;;23.00;99.90;;;;;;5083740;28;20086;-58
2023/08/11 07:44:32;;;;;;;7.88;6.13;;;23.20;99.90;;;;;;5081231;28;20070;-57
2023/08/11 07:47:00;;;;;;;11.25;5.65;;;23.30;99.90;;;;;;5072888;28;20425;-58
2023/08/11 07:49:27;;;;;;;9.20;5.90;;;23.40;99.90;;;;;;5061081;28;20563;-58
2023/08/11 07:51:53;;;;;;;14.35;6.30;;;23.60;99.90;;;;;;5068626;28;20052;-58
2023/08/11 07:54:19;;;;;;;10.38;5.90;;;23.70;99.90;;;;;;5068274;28;20079;-59
2023/08/11 07:56:45;;;;;;;12.50;6.32;;;23.80;99.90;;;;;;5067213;28;20044;-58
2023/08/11 07:59:11;;;;;;;11.30;6.28;;;24.00;99.90;;;;;;5080254;28;20575;-58
2023/08/11 08:01:37;;;;;;;9.65;5.80;;;24.00;99.90;;;;;;5083805;28;20051;-58
2023/08/11 08:04:03;;;;;;;8.85;6.13;;;24.00;99.90;;;;;;5075382;28;20129;-59
2023/08/11 08:06:30;;;;;;;7.40;5.57;;;24.00;99.90;;;;;;5067338;28;20044;-58
2023/08/11 08:08:56;;;;;;;10.18;6.00;;;24.10;99.90;;;;;;5073770;28;20045;-58
2023/08/11 08:11:22;;;;;;;15.73;5.93;;;24.20;99.90;;;;;;5086085;28;20096;-58
2023/08/11 08:13:47;;;;;;;8.48;5.53;;;24.10;99.90;;;;;;5068901;28;20051;-58
2023/08/11 08:16:13;;;;;;;9.52;4.97;;;24.00;99.90;;;;;;5099829;28;20124;-59
2023/08/11 08:18:39;;;;;;;6.50;5.03;;;23.80;99.90;;;;;;5081242;28;20096;-56
2023/08/11 08:21:05;;;;;;;7.03;4.82;;;23.70;99.90;;;;;;5065932;28;20037;-58
2023/08/11 08:23:31;;;;;;;7.22;4.47;;;23.60;99.90;;;;;;5071399;28;20037;-58
2023/08/11 08:25:57;;;;;;;17.30;5.30;;;23.50;99.90;;;;;;5076200;28;20833;-58
2023/08/11 08:28:23;;;;;;;6.40;4.35;;;23.60;99.90;;;;;;5063708;28;20105;-58
2023/08/11 08:30:48;;;;;;;6.63;4.82;;;23.60;99.90;;;;;;5075293;28;20529;-58
2023/08/11 08:33:14;;;;;;;7.10;4.90;;;23.70;99.90;;;;;;5078578;28;20040;-58
2023/08/11 08:35:40;;;;;;;8.65;4.63;;;23.70;99.90;;;;;;5076945;28;20067;-58
2023/08/11 08:38:05;;;;;;;7.63;4.72;;;23.70;99.90;;;;;;5054203;28;20508;-58
2023/08/11 08:40:34;;;;;;;7.93;4.85;;;23.80;99.90;;;;;;5066280;28;20049;-58
2023/08/11 08:43:00;;;;;;;7.57;4.88;;;23.80;99.90;;;;;;5073079;28;20043;-58
2023/08/11 08:45:27;;;;;;;6.45;4.38;;;23.70;99.90;;;;;;5073231;28;20036;-58
2023/08/11 08:47:54;;;;;;;8.25;5.55;;;23.70;99.90;;;;;;5078418;28;20058;-58
2023/08/11 08:50:22;;;;;;;10.98;4.88;;;23.70;99.90;;;;;;5077653;28;20079;-58
2023/08/11 08:52:50;;;;;;;8.98;4.55;;;23.70;99.90;;;;;;5075965;28;20104;-58
2023/08/11 08:55:17;;;;;;;6.80;4.78;;;23.70;99.90;;;;;;5062913;28;20041;-57
2023/08/11 08:57:43;;;;;;;7.07;4.50;;;23.70;99.90;;;;;;5069056;28;20037;-57
2023/08/11 09:00:09;;;;;;;9.10;5.00;;;23.70;99.90;;;;;;5067230;28;20053;-58
2023/08/11 09:02:36;;;;;;;8.20;4.90;;;23.80;99.90;;;;;;5065073;28;20052;-57
2023/08/11 09:05:02;;;;;;;7.72;4.38;;;23.80;99.90;;;;;;5066875;28;20598;-58
2023/08/11 09:07:28;;;;;;;8.13;4.93;;;23.70;99.90;;;;;;5072010;28;20070;-58
2023/08/11 09:09:53;;;;;;;6.97;4.57;;;23.70;99.90;;;;;;5072897;28;20549;-59
2023/08/11 09:12:19;;;;;;;7.22;4.53;;;23.70;99.90;;;;;;5073216;28;20059;-59
2023/08/11 09:14:45;;;;;;;8.30;4.45;;;23.70;99.90;;;;;;5072781;28;20156;-58
2023/08/11 09:17:11;;;;;;;6.60;4.38;;;23.70;99.90;;;;;;5072272;28;20092;-59
2023/08/11 09:19:37;;;;;;;13.88;4.43;;;23.70;99.90;;;;;;5071213;28;20096;-58
2023/08/11 09:22:10;;;;;;;7.47;4.85;;;23.70;99.90;;;;;;5066517;28;20067;-58
2023/08/11 09:24:37;;;;;;;9.88;4.60;;;23.70;99.90;;;;;;5072482;28;20044;-58
2023/08/11 09:27:03;;;;;;;7.72;4.65;;;23.80;99.90;;;;;;5075747;28;20079;-58
2023/08/11 09:29:29;;;;;;;8.60;4.50;;;23.80;99.90;;;;;;5067737;28;20041;-59
2023/08/11 09:31:55;;;;;;;8.80;4.60;;;23.90;99.90;;;;;;5062983;28;20523;-59
2023/08/11 09:34:21;;;;;;;9.55;4.00;;;24.10;99.90;;;;;;5066476;28;20045;-59
2023/08/11 09:36:49;;;;;;;8.38;4.75;;;24.10;99.90;;;;;;5071730;28;20047;-59
2023/08/11 09:39:16;;;;;;;8.10;4.68;;;24.20;99.90;;;;;;5075181;28;20069;-58
2023/08/11 09:41:47;;;;;;;10.23;4.45;;;24.30;99.90;;;;;;5074311;28;20571;-59
2023/08/11 09:44:17;;;;;;;6.53;3.90;;;24.30;99.90;;;;;;5068662;28;20052;-59
2023/08/11 09:46:44;;;;;;;7.43;4.20;;;24.40;99.90;;;;;;5074083;28;20044;-59
2023/08/11 09:49:10;;;;;;;7.22;4.32;;;24.30;99.90;;;;;;5069089;28;20044;-58
2023/08/11 09:51:37;;;;;;;10.15;3.85;;;24.30;99.90;;;;;;5072877;28;20044;-58
2023/08/11 09:54:06;;;;;;;7.07;3.80;;;24.30;99.90;;;;;;5067649;28;20045;-62
2023/08/11 09:56:35;;;;;;;5.85;4.07;;;24.40;99.90;;;;;;5068270;28;20073;-57
2023/08/11 09:59:09;;;;;;;6.88;3.95;;;24.40;99.90;;;;;;5068464;28;20033;-58
2023/08/11 10:01:36;;;;;;;7.57;3.78;;;24.40;99.90;;;;;;5071288;28;20040;-58
2023/08/11 10:04:12;;;;;;;6.32;3.92;;;24.40;99.90;;;;;;5078070;28;20075;-58
2023/08/11 10:06:41;;;;;;;6.80;3.80;;;24.40;99.90;;;;;;5072151;28;20036;-60
2023/08/11 10:09:11;;;;;;;7.00;3.95;;;24.40;99.90;;;;;;5065108;28;20064;-60
2023/08/11 10:11:37;;;;;;;6.97;3.97;;;24.40;99.90;;;;;;5072065;28;20049;-58
2023/08/11 10:14:03;;;;;;;8.10;4.18;;;24.40;99.90;;;;;;5081553;28;20063;-59
2023/08/11 10:16:30;;;;;;;6.90;3.20;;;24.40;99.90;;;;;;5078467;28;20544;-58
2023/08/11 10:18:58;;;;;;;6.78;3.60;;;24.50;99.90;;;;;;5076011;28;20039;-58
2023/08/11 10:21:26;;;;;;;10.02;3.38;;;24.60;99.90;;;;;;5071581;28;20060;-58
2023/08/11 10:23:55;;;;;;;10.48;3.95;;;24.60;99.90;;;;;;5071688;28;20045;-58
2023/08/11 10:26:23;;;;;;;6.63;3.65;;;24.60;99.90;;;;;;5080446;28;20049;-58
2023/08/11 10:28:50;;;;;;;5.55;3.50;;;24.60;99.90;;;;;;5071085;28;20537;-58
2023/08/11 10:31:16;;;;;;;6.50;3.60;;;24.60;99.90;;;;;;5063111;28;20480;-58
2023/08/11 10:33:53;;;;;;;6.70;3.75;;;24.70;99.90;;;;;;5067581;28;20028;-58
2023/08/11 10:36:23;;;;;;;6.00;3.95;;;24.70;99.90;;;;;;5076777;28;20083;-58
2023/08/11 10:39:00;;;;;;;8.00;3.88;;;24.80;99.90;;;;;;5068867;28;20116;-58
2023/08/11 10:41:27;;;;;;;10.80;3.90;;;24.80;99.90;;;;;;5071315;28;20079;-59
2023/08/11 10:43:55;;;;;;;5.47;3.80;;;24.70;99.90;;;;;;5075868;28;20434;-58
2023/08/11 10:46:23;;;;;;;6.53;3.83;;;24.80;99.90;;;;;;5072093;28;20053;-59
2023/08/11 10:49:12;;;;;;;7.47;3.63;;;24.80;99.90;;;;;;5077531;28;20045;-59
2023/08/11 10:51:39;;;;;;;6.18;3.70;;;24.80;99.90;;;;;;5059804;28;20056;-57
2023/08/11 10:54:10;;;;;;;8.63;3.88;;;24.90;99.90;;;;;;5078374;28;20044;-58
2023/08/11 10:56:43;;;;;;;6.80;3.53;;;25.00;99.90;;;;;;5069568;28;20044;-59
2023/08/11 10:59:13;;;;;;;6.47;3.95;;;25.00;99.90;;;;;;5077074;28;20082;-59
2023/08/11 11:01:41;;;;;;;6.72;4.18;;;25.00;99.90;;;;;;5076533;28;20074;-58
2023/08/11 11:04:08;;;;;;;6.13;3.30;;;24.90;99.90;;;;;;5067762;28;20045;-58
2023/08/11 11:06:35;;;;;;;8.20;4.30;;;25.00;99.90;;;;;;5074737;28;20047;-58
2023/08/11 11:09:01;;;;;;;7.55;3.42;;;25.10;99.90;;;;;;5100898;28;20055;-58
2023/08/11 11:11:27;;;;;;;6.15;4.20;;;25.20;99.90;;;;;;5074666;28;20053;-58
2023/08/11 11:13:53;;;;;;;7.60;3.00;;;25.20;99.90;;;;;;5072877;28;20080;-58
2023/08/11 11:16:19;;;;;;;12.10;4.28;;;25.30;99.90;;;;;;5070416;28;20036;-58
2023/08/11 11:18:49;;;;;;;6.47;3.72;;;25.30;99.90;;;;;;5059778;28;20040;-58
2023/08/11 11:21:17;;;;;;;7.25;3.80;;;25.40;99.90;;;;;;5070944;28;20090;-58
2023/08/11 11:23:50;;;;;;;6.72;3.60;;;25.40;99.90;;;;;;5079528;28;20044;-58
2023/08/11 11:26:24;;;;;;;7.20;3.42;;;25.40;99.90;;;;;;5074762;28;20382;-58
2023/08/11 11:28:50;;;;;;;6.13;3.58;;;25.50;99.90;;;;;;5077498;28;20501;-58
2023/08/11 11:31:17;;;;;;;6.03;3.55;;;25.50;99.90;;;;;;5068068;28;20041;-58
2023/08/11 11:33:44;;;;;;;5.78;3.58;;;25.50;99.90;;;;;;5071221;28;20100;-58
2023/08/11 11:36:10;;;;;;;11.55;3.72;;;25.60;99.90;;;;;;5073032;28;20523;-59
2023/08/11 11:38:36;;;;;;;12.90;4.15;;;25.70;99.90;;;;;;5072007;28;20098;-58
2023/08/11 11:41:02;;;;;;;8.13;4.00;;;25.70;99.90;;;;;;5079169;28;20047;-58
2023/08/11 11:43:28;;;;;;;5.10;3.78;;;25.80;99.90;;;;;;5069733;28;20041;-59
2023/08/11 11:45:55;;;;;;;5.35;3.55;;;25.80;99.90;;;;;;5065676;28;20112;-58
2023/08/11 11:48:21;;;;;;;9.38;4.05;;;25.80;99.90;;;;;;5070308;28;20071;-58
2023/08/11 11:50:47;;;;;;;7.43;4.15;;;25.80;99.90;;;;;;5067062;28;20041;-58
2023/08/11 11:53:13;;;;;;;6.20;4.07;;;25.80;99.90;;;;;;5079058;28;20036;-59
2023/08/11 11:55:46;;;;;;;6.95;4.25;;;25.90;99.90;;;;;;5071100;28;20084;-59
2023/08/11 11:58:15;;;;;;;7.90;4.22;;;26.00;99.90;;;;;;5072063;28;20049;-58
2023/08/11 12:00:43;;;;;;;8.35;4.35;;;26.00;99.90;;;;;;5064723;28;20041;-58
2023/08/11 12:03:09;;;;;;;8.95;3.80;;;26.10;99.90;;;;;;5073639;28;20037;-58
2023/08/11 12:05:35;;;;;;;8.15;4.07;;;26.20;99.90;;;;;;5066382;28;20041;-58
2023/08/11 12:08:19;;;;;;;6.63;4.10;;;26.20;99.90;;;;;;5072270;28;20079;-58
2023/08/11 12:10:46;;;;;;;7.97;4.10;;;26.30;99.90;;;;;;5073151;28;20052;-59
2023/08/11 12:13:12;;;;;;;8.27;4.03;;;26.30;99.90;;;;;;5070614;28;20045;-58
2023/08/11 12:15:38;;;;;;;6.00;3.50;;;26.30;99.90;;;;;;5076305;28;20158;-59
2023/08/11 12:18:05;;;;;;;6.97;3.63;;;26.40;99.90;;;;;;5066721;28;20037;-58
2023/08/11 12:20:31;;;;;;;7.20;3.65;;;26.50;99.90;;;;;;5060110;28;20051;-58
2023/08/11 12:22:56;;;;;;;6.95;3.65;;;26.50;99.90;;;;;;5071631;28;20729;-58
2023/08/11 12:25:23;;;;;;;7.82;3.50;;;26.50;99.90;;;;;;5064493;28;20162;-58
2023/08/11 12:27:49;;;;;;;6.95;4.00;;;26.60;99.90;;;;;;5079122;28;20044;-58
2023/08/11 12:30:15;;;;;;;6.72;4.32;;;26.60;99.90;;;;;;5068617;28;20808;-58
2023/08/11 12:32:41;;;;;;;7.53;3.85;;;26.60;99.90;;;;;;5070374;28;20527;-58